MV Lockmaster — WDF4136 — position and weather

sailwx.info

Track history (hours):
 
Tides and Currents Weather Stations Pressure Air Temp Water Temp Dewpoint Dewpoint Depression Visibility Wind Speed Wind Dir Waves Ship Positions

MV Lockmaster

Owner: River Construction, Metaire, LA. More information available from US FCC via Universal Licensing System and Coast Guard Vessel Documentation Center.

Last reported at 2015-May-27 03:33 UTC. Time now 2015-May-27 03:55 UTC.
Position N 30°00' W 089°59'.

Type: Towing. MMSI: 367448420.

Date/timePositionNaut miles runAvg speedWind from/ knotsBaromVisibWave heightAir tempDewpointWater temp
2015-May-27 03:33N 30°00' W 089°59'0 0.0
2015-May-27 02:24N 30°00' W 089°59'0 0.0
2015-May-27 01:08N 29°60' W 089°59'0 0.0
2015-May-27 00:32N 30°00' W 089°59'0 0.0
2015-May-26 23:26N 29°60' W 089°59'0 0.0
2015-May-26 22:30N 30°00' W 089°59'0 0.0
2015-May-26 21:05N 30°00' W 089°59'0 0.0
2015-May-26 20:30N 30°00' W 089°59'0 0.0
2015-May-26 19:08N 30°00' W 089°59'0 0.0
2015-May-26 18:33N 30°00' W 089°59'0 0.0
2015-May-26 17:33N 29°60' W 089°59'0 0.0
2015-May-26 16:31N 29°60' W 089°59'0 0.0
2015-May-26 15:30N 30°00' W 089°59'0 0.0
2015-May-26 14:33N 30°00' W 089°59'0 0.0
2015-May-26 13:33N 30°00' W 089°59'0 0.0
2015-May-26 12:33N 30°00' W 089°59'0 0.0
2015-May-26 11:32N 30°00' W 089°59'0 0.0
2015-May-26 10:32N 29°60' W 089°59'0 0.0
2015-May-26 09:31N 30°00' W 089°59'0 0.0
2015-May-26 08:29N 29°60' W 089°59'0 0.0
2015-May-26 07:33N 29°60' W 089°59'0 0.0
2015-May-26 06:32N 30°00' W 089°59'0 0.0
2015-May-26 05:33N 30°00' W 089°59'0 0.0
2015-May-26 04:32N 30°00' W 089°59'0 0.0
2015-May-26 03:23N 30°00' W 089°59'0 0.0
2015-May-26 02:31N 30°00' W 089°59'0 0.0
2015-May-26 01:27N 29°60' W 089°59'0 0.0
2015-May-25 09:14N 30°00' W 089°59'0 0.0
2015-May-25 02:16N 30°00' W 089°59'0 0.0
2015-May-25 01:17N 29°60' W 089°59'0 0.0
2015-May-25 00:29N 30°00' W 089°59'0 0.0
2015-May-24 23:24N 30°00' W 089°59'0 0.0
2015-May-24 22:33N 30°00' W 089°59'0 0.0
2015-May-24 21:30N 30°00' W 089°59'0 0.0
2015-May-24 20:31N 30°00' W 089°59'0 0.0
2015-May-24 19:30N 30°00' W 089°59'0 0.1
2015-May-24 18:17N 29°60' W 089°60'3 3.4
2015-May-24 17:28N 29°58' W 090°02'1 1.2
2015-May-24 16:33N 29°57' W 090°01'4 3.1
2015-May-24 15:24N 29°55' W 089°57'0 0.2
2015-May-24 14:33N 29°55' W 089°58'4 4.3
2015-May-24 13:33N 29°58' W 090°02'0 0.4
2015-May-24 12:33N 29°58' W 090°02'3 3.0
2015-May-24 11:28N 29°60' W 089°58'1 1.1
2015-May-24 10:32N 30°00' W 089°59'0 0.0
2015-May-24 09:29N 29°60' W 089°59'0 0.0
2015-May-24 08:32N 30°00' W 089°59'0 0.0
2015-May-24 07:28N 30°00' W 089°59'0 0.0
2015-May-24 06:33N 30°00' W 089°59'0 0.0
2015-May-24 05:23N 29°60' W 089°59'0 0.0
2015-May-24 04:18N 30°00' W 089°59'0 0.0
2015-May-24 03:30N 29°60' W 089°59'0 0.0
2015-May-23 09:10N 29°60' W 089°59'0 0.1
2015-May-23 07:28N 30°00' W 089°59'0 0.1
2015-May-23 06:24N 29°60' W 089°59'6 2.0
2015-May-23 03:24N 29°55' W 090°04'0 0.0
2015-May-23 02:29N 29°55' W 090°04'3 3.6
2015-May-23 01:33N 29°57' W 090°00'2 1.6
2015-May-23 00:27N 29°56' W 089°58'4 4.0
2015-May-22 23:31N 29°58' W 090°02'0 0.3
2015-May-22 22:28N 29°58' W 090°01'2 2.6
2015-May-22 21:32N 30°00' W 089°59'0 0.0
2015-May-22 20:32N 30°00' W 089°59'0 0.0
2015-May-22 19:33N 30°00' W 089°59'1 1.0
2015-May-22 18:30N 29°60' W 090°01'2 2.4
2015-May-22 17:31N 29°58' W 090°02'0 0.4
2015-May-22 16:31N 29°58' W 090°02'3 2.7
2015-May-22 15:31N 29°60' W 089°59'0 0.0
2015-May-22 14:30N 29°60' W 089°59'0 0.0
2015-May-22 13:33N 29°60' W 089°59'0 0.0
2015-May-22 12:32N 29°60' W 089°59'0 0.0
2015-May-22 11:27N 29°60' W 089°59'0 0.0
2015-May-22 10:33N 30°00' W 089°59'0 0.0
2015-May-22 09:25N 29°60' W 089°59'0 0.1
2015-May-22 08:32N 29°60' W 089°59'4 3.6
2015-May-22 07:33N 29°58' W 090°02'1 0.5
2015-May-22 06:08N 29°57' W 090°02'1 1.0
2015-May-22 05:29N 29°58' W 090°02'3 0.2
2015-May-21 12:25N 29°60' W 089°59'0 0.0
2015-May-21 07:12N 29°60' W 089°59'0 0.0
2015-May-21 06:20N 29°60' W 089°59'0 0.0
2015-May-21 05:07N 29°60' W 089°59'0 0.0
2015-May-21 04:22N 29°60' W 089°59'0 0.0
2015-May-21 03:11N 29°60' W 089°59'0 0.0
2015-May-21 02:23N 29°60' W 089°59'0 0.1
2015-May-21 01:23N 29°60' W 089°59'3 3.3
2015-May-21 00:19N 30°01' W 089°55'1 0.9
2015-May-20 23:25N 30°01' W 089°54'3 3.4
2015-May-20 22:31N 30°00' W 089°58'1 1.2
2015-May-20 21:31N 29°60' W 089°59'0 0.0
2015-May-20 20:22N 29°60' W 089°59'3 3.1
2015-May-20 19:32N 29°58' W 090°02'0 0.4
2015-May-20 18:32N 29°58' W 090°02'0 0.1
2015-May-20 17:31N 29°58' W 090°02'3 2.7
2015-May-20 16:31N 30°00' W 089°59'0 0.0
2015-May-20 15:33N 30°00' W 089°59'0 0.0
2015-May-20 14:26N 30°00' W 089°59'0 0.0
2015-May-20 13:30N 30°00' W 089°59'0 0.0
2015-May-20 12:32N 30°00' W 089°59'0 0.0
2015-May-20 11:25N 30°00' W 089°59'0 0.0
2015-May-20 10:32N 30°00' W 089°59'0 0.0
2015-May-20 09:30N 30°00' W 089°59'0 0.0
2015-May-20 08:30N 30°00' W 089°59'2 0.1
2015-May-19 14:17N 29°58' W 090°02'3 3.6
2015-May-19 13:33N 30°00' W 089°59'0 0.3
2015-May-19 12:21N 30°00' W 089°59'0 0.0
2015-May-19 09:16N 30°00' W 089°59'2 2.7
2015-May-19 08:32N 29°59' W 090°01'2 1.5
2015-May-19 07:29N 29°58' W 090°02'1 0.7
2015-May-19 06:29N 29°58' W 090°02'1 0.7
2015-May-19 05:26N 29°58' W 090°01'2 2.5
2015-May-19 04:27N 29°60' W 089°59'4 1.9
2015-May-19 02:26N 29°56' W 089°59'2 1.8
2015-May-19 01:21N 29°56' W 089°57'5 5.0
2015-May-19 00:26N 29°58' W 090°02'2 2.0
2015-May-18 23:28N 29°60' W 090°01'1 1.3
2015-May-18 22:32N 30°00' W 089°59'0 0.0
2015-May-18 21:33N 30°00' W 089°59'0 0.0
2015-May-18 20:33N 30°00' W 089°59'0 0.0
2015-May-18 19:32N 30°00' W 089°59'0 0.0
2015-May-18 18:30N 30°00' W 089°59'0 0.0
2015-May-18 17:32N 30°00' W 089°59'0 0.0
2015-May-18 16:32N 30°00' W 089°59'2 2.1
2015-May-18 15:27N 30°00' W 089°57'2 1.9
2015-May-18 14:31N 29°60' W 089°59'0 0.5
2015-May-18 13:26N 30°00' W 089°59'0 0.0
2015-May-18 12:29N 30°00' W 089°59'0 0.0
2015-May-18 11:28N 30°00' W 089°59'3 3.3
2015-May-18 10:31N 30°00' W 089°56'3 0.2
2015-May-17 19:10N 30°00' W 089°59'0 0.0
2015-May-17 17:12N 30°00' W 089°59'0 0.0
2015-May-17 15:33N 30°00' W 089°59'3 2.1
2015-May-17 14:11N 29°58' W 090°02'1 0.3
2015-May-17 12:34N 29°57' W 090°02'1 0.7
2015-May-17 11:16N 29°58' W 090°02'2 1.5
2015-May-17 10:03N 29°60' W 090°00'1 1.3
2015-May-17 09:26N 30°00' W 089°59'1 1.0
2015-May-17 08:12N 29°60' W 090°01'3 3.5
2015-May-17 07:24N 29°57' W 090°00'3 2.9
2015-May-17 06:32N 29°56' W 089°58'4 2.9
2015-May-17 05:06N 29°58' W 090°02'1 1.7
2015-May-17 04:30N 29°59' W 090°01'  
Track history (hours):
 
Tides and Currents Weather Stations Pressure Air Temp Water Temp Dewpoint Dewpoint Depression Visibility Wind Speed Wind Dir Waves Ship Positions

MV Lockmaster

Owner: River Construction, Metaire, LA. More information available from US FCC via Universal Licensing System and Coast Guard Vessel Documentation Center.

Last reported at 2015-May-27 03:33 UTC. Time now 2015-May-27 03:55 UTC.
Position N 30°00' W 089°59'.

Type: Towing. MMSI: 367448420.

Date/timePositionNaut miles runAvg speedWind from/ knotsBaromVisibWave heightAir tempDewpointWater temp
2015-May-27 03:33N 30°00' W 089°59'0 0.0
2015-May-27 02:24N 30°00' W 089°59'0 0.0
2015-May-27 01:08N 29°60' W 089°59'0 0.0
2015-May-27 00:32N 30°00' W 089°59'0 0.0
2015-May-26 23:26N 29°60' W 089°59'0 0.0
2015-May-26 22:30N 30°00' W 089°59'0 0.0
2015-May-26 21:05N 30°00' W 089°59'0 0.0
2015-May-26 20:30N 30°00' W 089°59'0 0.0
2015-May-26 19:08N 30°00' W 089°59'0 0.0
2015-May-26 18:33N 30°00' W 089°59'0 0.0
2015-May-26 17:33N 29°60' W 089°59'0 0.0
2015-May-26 16:31N 29°60' W 089°59'0 0.0
2015-May-26 15:30N 30°00' W 089°59'0 0.0
2015-May-26 14:33N 30°00' W 089°59'0 0.0
2015-May-26 13:33N 30°00' W 089°59'0 0.0
2015-May-26 12:33N 30°00' W 089°59'0 0.0
2015-May-26 11:32N 30°00' W 089°59'0 0.0
2015-May-26 10:32N 29°60' W 089°59'0 0.0
2015-May-26 09:31N 30°00' W 089°59'0 0.0
2015-May-26 08:29N 29°60' W 089°59'0 0.0
2015-May-26 07:33N 29°60' W 089°59'0 0.0
2015-May-26 06:32N 30°00' W 089°59'0 0.0
2015-May-26 05:33N 30°00' W 089°59'0 0.0
2015-May-26 04:32N 30°00' W 089°59'0 0.0
2015-May-26 03:23N 30°00' W 089°59'0 0.0
2015-May-26 02:31N 30°00' W 089°59'0 0.0
2015-May-26 01:27N 29°60' W 089°59'0 0.0
2015-May-25 09:14N 30°00' W 089°59'0 0.0
2015-May-25 02:16N 30°00' W 089°59'0 0.0
2015-May-25 01:17N 29°60' W 089°59'0 0.0
2015-May-25 00:29N 30°00' W 089°59'0 0.0
2015-May-24 23:24N 30°00' W 089°59'0 0.0
2015-May-24 22:33N 30°00' W 089°59'0 0.0
2015-May-24 21:30N 30°00' W 089°59'0 0.0
2015-May-24 20:31N 30°00' W 089°59'0 0.0
2015-May-24 19:30N 30°00' W 089°59'0 0.1
2015-May-24 18:17N 29°60' W 089°60'3 3.4
2015-May-24 17:28N 29°58' W 090°02'1 1.2
2015-May-24 16:33N 29°57' W 090°01'4 3.1
2015-May-24 15:24N 29°55' W 089°57'0 0.2
2015-May-24 14:33N 29°55' W 089°58'4 4.3
2015-May-24 13:33N 29°58' W 090°02'0 0.4
2015-May-24 12:33N 29°58' W 090°02'3 3.0
2015-May-24 11:28N 29°60' W 089°58'1 1.1
2015-May-24 10:32N 30°00' W 089°59'0 0.0
2015-May-24 09:29N 29°60' W 089°59'0 0.0
2015-May-24 08:32N 30°00' W 089°59'0 0.0
2015-May-24 07:28N 30°00' W 089°59'0 0.0
2015-May-24 06:33N 30°00' W 089°59'0 0.0
2015-May-24 05:23N 29°60' W 089°59'0 0.0
2015-May-24 04:18N 30°00' W 089°59'0 0.0
2015-May-24 03:30N 29°60' W 089°59'0 0.0
2015-May-23 09:10N 29°60' W 089°59'0 0.1
2015-May-23 07:28N 30°00' W 089°59'0 0.1
2015-May-23 06:24N 29°60' W 089°59'6 2.0
2015-May-23 03:24N 29°55' W 090°04'0 0.0
2015-May-23 02:29N 29°55' W 090°04'3 3.6
2015-May-23 01:33N 29°57' W 090°00'2 1.6
2015-May-23 00:27N 29°56' W 089°58'4 4.0
2015-May-22 23:31N 29°58' W 090°02'0 0.3
2015-May-22 22:28N 29°58' W 090°01'2 2.6
2015-May-22 21:32N 30°00' W 089°59'0 0.0
2015-May-22 20:32N 30°00' W 089°59'0 0.0
2015-May-22 19:33N 30°00' W 089°59'1 1.0
2015-May-22 18:30N 29°60' W 090°01'2 2.4
2015-May-22 17:31N 29°58' W 090°02'0 0.4
2015-May-22 16:31N 29°58' W 090°02'3 2.7
2015-May-22 15:31N 29°60' W 089°59'0 0.0
2015-May-22 14:30N 29°60' W 089°59'0 0.0
2015-May-22 13:33N 29°60' W 089°59'0 0.0
2015-May-22 12:32N 29°60' W 089°59'0 0.0
2015-May-22 11:27N 29°60' W 089°59'0 0.0
2015-May-22 10:33N 30°00' W 089°59'0 0.0
2015-May-22 09:25N 29°60' W 089°59'0 0.1
2015-May-22 08:32N 29°60' W 089°59'4 3.6
2015-May-22 07:33N 29°58' W 090°02'1 0.5
2015-May-22 06:08N 29°57' W 090°02'1 1.0
2015-May-22 05:29N 29°58' W 090°02'3 0.2
2015-May-21 12:25N 29°60' W 089°59'0 0.0
2015-May-21 07:12N 29°60' W 089°59'0 0.0
2015-May-21 06:20N 29°60' W 089°59'0 0.0
2015-May-21 05:07N 29°60' W 089°59'0 0.0
2015-May-21 04:22N 29°60' W 089°59'0 0.0
2015-May-21 03:11N 29°60' W 089°59'0 0.0
2015-May-21 02:23N 29°60' W 089°59'0 0.1
2015-May-21 01:23N 29°60' W 089°59'3 3.3
2015-May-21 00:19N 30°01' W 089°55'1 0.9
2015-May-20 23:25N 30°01' W 089°54'3 3.4
2015-May-20 22:31N 30°00' W 089°58'1 1.2
2015-May-20 21:31N 29°60' W 089°59'0 0.0
2015-May-20 20:22N 29°60' W 089°59'3 3.1
2015-May-20 19:32N 29°58' W 090°02'0 0.4
2015-May-20 18:32N 29°58' W 090°02'0 0.1
2015-May-20 17:31N 29°58' W 090°02'3 2.7
2015-May-20 16:31N 30°00' W 089°59'0 0.0
2015-May-20 15:33N 30°00' W 089°59'0 0.0
2015-May-20 14:26N 30°00' W 089°59'0 0.0
2015-May-20 13:30N 30°00' W 089°59'0 0.0
2015-May-20 12:32N 30°00' W 089°59'0 0.0
2015-May-20 11:25N 30°00' W 089°59'0 0.0
2015-May-20 10:32N 30°00' W 089°59'0 0.0
2015-May-20 09:30N 30°00' W 089°59'0 0.0
2015-May-20 08:30N 30°00' W 089°59'2 0.1
2015-May-19 14:17N 29°58' W 090°02'3 3.6
2015-May-19 13:33N 30°00' W 089°59'0 0.3
2015-May-19 12:21N 30°00' W 089°59'0 0.0
2015-May-19 09:16N 30°00' W 089°59'2 2.7
2015-May-19 08:32N 29°59' W 090°01'2 1.5
2015-May-19 07:29N 29°58' W 090°02'1 0.7
2015-May-19 06:29N 29°58' W 090°02'1 0.7
2015-May-19 05:26N 29°58' W 090°01'2 2.5
2015-May-19 04:27N 29°60' W 089°59'4 1.9
2015-May-19 02:26N 29°56' W 089°59'2 1.8
2015-May-19 01:21N 29°56' W 089°57'5 5.0
2015-May-19 00:26N 29°58' W 090°02'2 2.0
2015-May-18 23:28N 29°60' W 090°01'1 1.3
2015-May-18 22:32N 30°00' W 089°59'0 0.0
2015-May-18 21:33N 30°00' W 089°59'0 0.0
2015-May-18 20:33N 30°00' W 089°59'0 0.0
2015-May-18 19:32N 30°00' W 089°59'0 0.0
2015-May-18 18:30N 30°00' W 089°59'0 0.0
2015-May-18 17:32N 30°00' W 089°59'0 0.0
2015-May-18 16:32N 30°00' W 089°59'2 2.1
2015-May-18 15:27N 30°00' W 089°57'2 1.9
2015-May-18 14:31N 29°60' W 089°59'0 0.5
2015-May-18 13:26N 30°00' W 089°59'0 0.0
2015-May-18 12:29N 30°00' W 089°59'0 0.0
2015-May-18 11:28N 30°00' W 089°59'3 3.3
2015-May-18 10:31N 30°00' W 089°56'3 0.2
2015-May-17 19:10N 30°00' W 089°59'0 0.0
2015-May-17 17:12N 30°00' W 089°59'0 0.0
2015-May-17 15:33N 30°00' W 089°59'3 2.1
2015-May-17 14:11N 29°58' W 090°02'1 0.3
2015-May-17 12:34N 29°57' W 090°02'1 0.7
2015-May-17 11:16N 29°58' W 090°02'2 1.5
2015-May-17 10:03N 29°60' W 090°00'1 1.3
2015-May-17 09:26N 30°00' W 089°59'1 1.0
2015-May-17 08:12N 29°60' W 090°01'3 3.5
2015-May-17 07:24N 29°57' W 090°00'3 2.9
2015-May-17 06:32N 29°56' W 089°58'4 2.9
2015-May-17 05:06N 29°58' W 090°02'1 1.7
2015-May-17 04:30N 29°59' W 090°01'  

Dump ship's entire track history